sensor_id;sensor_type;location;lat;lon;timestamp;pressure;altitude;pressure_sealevel;temperature;humidity
16461;BME280;8341;42.048;24.650;2023-05-07T00:01:35;97493.72;;;15.36;100.00
16461;BME280;8341;42.048;24.650;2023-05-07T00:04:02;97494.47;;;15.36;100.00
16461;BME280;8341;42.048;24.650;2023-05-07T00:06:29;97498.22;;;15.33;100.00
16461;BME280;8341;42.048;24.650;2023-05-07T00:08:56;97486.72;;;15.18;100.00
16461;BME280;8341;42.048;24.650;2023-05-07T00:11:24;97478.97;;;15.11;100.00
16461;BME280;8341;42.048;24.650;2023-05-07T00:13:53;97491.97;;;15.16;100.00
16461;BME280;8341;42.048;24.650;2023-05-07T00:16:20;97495.97;;;15.26;100.00
16461;BME280;8341;42.048;24.650;2023-05-07T00:18:47;97469.47;;;15.12;100.00
16461;BME280;8341;42.048;24.650;2023-05-07T00:21:14;97489.72;;;15.26;100.00
16461;BME280;8341;42.048;24.650;2023-05-07T00:23:41;97475.75;;;15.24;100.00
16461;BME280;8341;42.048;24.650;2023-05-07T00:26:07;97482.22;;;15.21;100.00
16461;BME280;8341;42.048;24.650;2023-05-07T00:28:34;97475.47;;;15.16;100.00
16461;BME280;8341;42.048;24.650;2023-05-07T00:31:03;97489.47;;;15.18;100.00
16461;BME280;8341;42.048;24.650;2023-05-07T00:33:29;97467.47;;;15.07;100.00
16461;BME280;8341;42.048;24.650;2023-05-07T00:35:56;97482.22;;;15.15;100.00
16461;BME280;8341;42.048;24.650;2023-05-07T00:38:23;97480.47;;;15.12;100.00
16461;BME280;8341;42.048;24.650;2023-05-07T00:40:50;97476.19;;;15.00;100.00
16461;BME280;8341;42.048;24.650;2023-05-07T00:43:17;97483.69;;;14.99;100.00
16461;BME280;8341;42.048;24.650;2023-05-07T00:45:44;97475.91;;;14.92;100.00
16461;BME280;8341;42.048;24.650;2023-05-07T00:48:12;97493.13;;;14.87;100.00
16461;BME280;8341;42.048;24.650;2023-05-07T00:50:40;97494.34;;;14.81;100.00
16461;BME280;8341;42.048;24.650;2023-05-07T00:53:07;97494.06;;;14.68;100.00
16461;BME280;8341;42.048;24.650;2023-05-07T00:55:35;97496.25;;;14.53;100.00
16461;BME280;8341;42.048;24.650;2023-05-07T00:58:02;97495.75;;;14.60;100.00
16461;BME280;8341;42.048;24.650;2023-05-07T01:00:29;97495.53;;;14.63;100.00
16461;BME280;8341;42.048;24.650;2023-05-07T01:02:57;97439.19;;;14.25;100.00
16461;BME280;8341;42.048;24.650;2023-05-07T01:05:26;97502.50;;;14.64;100.00
16461;BME280;8341;42.048;24.650;2023-05-07T01:07:55;97504.56;;;14.75;100.00
16461;BME280;8341;42.048;24.650;2023-05-07T01:10:23;97504.31;;;14.73;100.00
16461;BME280;8341;42.048;24.650;2023-05-07T01:12:51;97507.56;;;14.77;100.00
16461;BME280;8341;42.048;24.650;2023-05-07T01:15:18;97503.31;;;14.76;100.00
16461;BME280;8341;42.048;24.650;2023-05-07T01:17:45;97506.31;;;14.78;100.00
16461;BME280;8341;42.048;24.650;2023-05-07T01:20:12;97506.31;;;14.78;100.00
16461;BME280;8341;42.048;24.650;2023-05-07T01:22:42;97506.81;;;14.76;100.00
16461;BME280;8341;42.048;24.650;2023-05-07T01:25:09;97506.03;;;14.70;100.00
16461;BME280;8341;42.048;24.650;2023-05-07T01:27:36;97468.75;;;14.47;100.00
16461;BME280;8341;42.048;24.650;2023-05-07T01:30:04;97509.03;;;14.72;100.00
16461;BME280;8341;42.048;24.650;2023-05-07T01:32:35;97511.06;;;14.77;100.00
16461;BME280;8341;42.048;24.650;2023-05-07T01:35:05;97512.53;;;14.73;100.00
16461;BME280;8341;42.048;24.650;2023-05-07T01:37:34;97513.53;;;14.70;100.00
16461;BME280;8341;42.048;24.650;2023-05-07T01:40:03;97494.50;;;14.55;100.00
16461;BME280;8341;42.048;24.650;2023-05-07T01:42:30;97503.28;;;14.70;100.00
16461;BME280;8341;42.048;24.650;2023-05-07T01:44:58;97507.56;;;14.77;100.00
16461;BME280;8341;42.048;24.650;2023-05-07T01:47:25;97504.53;;;14.69;100.00
16461;BME280;8341;42.048;24.650;2023-05-07T01:49:52;97502.78;;;14.72;100.00
16461;BME280;8341;42.048;24.650;2023-05-07T01:52:20;97497.31;;;14.72;100.00
16461;BME280;8341;42.048;24.650;2023-05-07T01:54:47;97492.81;;;14.69;100.00
16461;BME280;8341;42.048;24.650;2023-05-07T01:57:15;97493.28;;;14.62;100.00
16461;BME280;8341;42.048;24.650;2023-05-07T01:59:42;97492.00;;;14.57;100.00
16461;BME280;8341;42.048;24.650;2023-05-07T02:02:09;97492.41;;;14.39;100.00
16461;BME280;8341;42.048;24.650;2023-05-07T02:04:36;97441.56;;;14.01;100.00
16461;BME280;8341;42.048;24.650;2023-05-07T02:07:03;97491.94;;;14.40;100.00
16461;BME280;8341;42.048;24.650;2023-05-07T02:09:30;97485.94;;;14.42;100.00
16461;BME280;8341;42.048;24.650;2023-05-07T02:11:56;97456.13;;;14.18;100.00
16461;BME280;8341;42.048;24.650;2023-05-07T02:14:25;97483.00;;;14.46;100.00
16461;BME280;8341;42.048;24.650;2023-05-07T02:16:52;97473.94;;;14.34;100.00
16461;BME280;8341;42.048;24.650;2023-05-07T02:19:19;97472.66;;;14.29;100.00
16461;BME280;8341;42.048;24.650;2023-05-07T02:21:46;97473.13;;;14.28;100.00
16461;BME280;8341;42.048;24.650;2023-05-07T02:24:13;97481.41;;;14.33;100.00
16461;BME280;8341;42.048;24.650;2023-05-07T02:26:40;97483.41;;;14.33;100.00
16461;BME280;8341;42.048;24.650;2023-05-07T02:29:07;97491.41;;;14.36;100.00
16461;BME280;8341;42.048;24.650;2023-05-07T02:31:35;97491.63;;;14.33;100.00
16461;BME280;8341;42.048;24.650;2023-05-07T02:34:02;97493.66;;;14.32;100.00
16461;BME280;8341;42.048;24.650;2023-05-07T02:36:29;97418.97;;;13.75;100.00
16461;BME280;8341;42.048;24.650;2023-05-07T02:38:56;97492.53;;;14.19;100.00
16461;BME280;8341;42.048;24.650;2023-05-07T02:41:23;97483.22;;;14.05;100.00
16461;BME280;8341;42.048;24.650;2023-05-07T02:43:50;97462.25;;;13.97;100.00
16461;BME280;8341;42.048;24.650;2023-05-07T02:46:16;97474.53;;;14.12;100.00
16461;BME280;8341;42.048;24.650;2023-05-07T02:48:45;97444.09;;;13.68;100.00
16461;BME280;8341;42.048;24.650;2023-05-07T02:51:12;97433.22;;;13.48;100.00
16461;BME280;8341;42.048;24.650;2023-05-07T02:53:38;97472.81;;;13.78;100.00
16461;BME280;8341;42.048;24.650;2023-05-07T02:56:06;97434.72;;;13.49;100.00
16461;BME280;8341;42.048;24.650;2023-05-07T02:58:33;97457.25;;;13.64;100.00
16461;BME280;8341;42.048;24.650;2023-05-07T03:01:00;97463.38;;;13.53;100.00
16461;BME280;8341;42.048;24.650;2023-05-07T03:03:27;97472.41;;;13.59;100.00
16461;BME280;8341;42.048;24.650;2023-05-07T03:05:55;97467.38;;;13.52;100.00
16461;BME280;8341;42.048;24.650;2023-05-07T03:08:22;97431.66;;;13.10;100.00
16461;BME280;8341;42.048;24.650;2023-05-07T03:10:49;97412.88;;;12.77;100.00
16461;BME280;8341;42.048;24.650;2023-05-07T03:13:15;97450.94;;;13.01;100.00
16461;BME280;8341;42.048;24.650;2023-05-07T03:15:42;97456.56;;;13.12;100.00
16461;BME280;8341;42.048;24.650;2023-05-07T03:18:09;97452.59;;;13.13;100.00
16461;BME280;8341;42.048;24.650;2023-05-07T03:20:36;97472.25;;;13.37;100.00
16461;BME280;8341;42.048;24.650;2023-05-07T03:23:04;97482.22;;;13.40;100.00
16461;BME280;8341;42.048;24.650;2023-05-07T03:25:32;97411.16;;;12.54;100.00
16461;BME280;8341;42.048;24.650;2023-05-07T03:27:58;97423.19;;;12.42;100.00
16461;BME280;8341;42.048;24.650;2023-05-07T03:30:25;97422.66;;;12.58;100.00
16461;BME280;8341;42.048;24.650;2023-05-07T03:32:52;97428.38;;;12.60;100.00
16461;BME280;8341;42.048;24.650;2023-05-07T03:35:19;97470.47;;;12.88;100.00
16461;BME280;8341;42.048;24.650;2023-05-07T03:37:46;97472.53;;;12.93;100.00
16461;BME280;8341;42.048;24.650;2023-05-07T03:40:15;97465.59;;;12.98;100.00
16461;BME280;8341;42.048;24.650;2023-05-07T03:42:41;97449.88;;;12.93;100.00
16461;BME280;8341;42.048;24.650;2023-05-07T03:45:09;97476.56;;;12.98;100.00
16461;BME280;8341;42.048;24.650;2023-05-07T03:47:36;97465.81;;;12.94;100.00
16461;BME280;8341;42.048;24.650;2023-05-07T03:50:03;97494.84;;;13.06;100.00
16461;BME280;8341;42.048;24.650;2023-05-07T03:52:30;97491.41;;;13.11;100.00
16461;BME280;8341;42.048;24.650;2023-05-07T03:54:57;97475.44;;;13.10;100.00
16461;BME280;8341;42.048;24.650;2023-05-07T03:57:25;97495.31;;;13.31;100.00
16461;BME280;8341;42.048;24.650;2023-05-07T03:59:52;97501.34;;;13.35;100.00
16461;BME280;8341;42.048;24.650;2023-05-07T04:02:19;97492.69;;;13.42;100.00
16461;BME280;8341;42.048;24.650;2023-05-07T04:04:48;97492.97;;;13.44;100.00
16461;BME280;8341;42.048;24.650;2023-05-07T04:07:15;97491.16;;;13.35;100.00
16461;BME280;8341;42.048;24.650;2023-05-07T04:09:42;97487.91;;;13.37;100.00
16461;BME280;8341;42.048;24.650;2023-05-07T04:12:09;97498.53;;;13.55;100.00
16461;BME280;8341;42.048;24.650;2023-05-07T04:14:37;97496.63;;;13.66;100.00
16461;BME280;8341;42.048;24.650;2023-05-07T04:17:04;97491.25;;;13.77;100.00
16461;BME280;8341;42.048;24.650;2023-05-07T04:19:33;97447.44;;;13.52;100.00
16461;BME280;8341;42.048;24.650;2023-05-07T04:21:59;97491.81;;;13.87;100.00
16461;BME280;8341;42.048;24.650;2023-05-07T04:24:26;97491.41;;;14.00;100.00
16461;BME280;8341;42.048;24.650;2023-05-07T04:26:53;97466.72;;;13.63;100.00
16461;BME280;8341;42.048;24.650;2023-05-07T04:29:20;97427.75;;;13.16;100.00
16461;BME280;8341;42.048;24.650;2023-05-07T04:31:48;97483.59;;;13.56;100.00
16461;BME280;8341;42.048;24.650;2023-05-07T04:34:15;97428.38;;;13.32;100.00
16461;BME280;8341;42.048;24.650;2023-05-07T04:36:42;97488.53;;;14.14;100.00
16461;BME280;8341;42.048;24.650;2023-05-07T04:39:09;97487.44;;;15.13;99.13
16461;BME280;8341;42.048;24.650;2023-05-07T04:41:36;97492.50;;;15.42;96.23
16461;BME280;8341;42.048;24.650;2023-05-07T04:44:03;97486.78;;;15.51;95.40
16461;BME280;8341;42.048;24.650;2023-05-07T04:46:31;97492.56;;;15.53;93.16
16461;BME280;8341;42.048;24.650;2023-05-07T04:48:59;97488.53;;;15.54;93.80
16461;BME280;8341;42.048;24.650;2023-05-07T04:51:26;97479.28;;;15.46;94.66
16461;BME280;8341;42.048;24.650;2023-05-07T04:53:53;97494.81;;;15.66;95.34
16461;BME280;8341;42.048;24.650;2023-05-07T04:56:20;97498.56;;;15.69;93.68
16461;BME280;8341;42.048;24.650;2023-05-07T04:58:47;97407.78;;;15.07;96.04
16461;BME280;8341;42.048;24.650;2023-05-07T05:01:14;97490.56;;;15.48;94.73
16461;BME280;8341;42.048;24.650;2023-05-07T05:03:41;97491.03;;;15.52;95.16
16461;BME280;8341;42.048;24.650;2023-05-07T05:06:09;97463.50;;;15.25;94.42
16461;BME280;8341;42.048;24.650;2023-05-07T05:08:36;97408.25;;;14.89;97.26
16461;BME280;8341;42.048;24.650;2023-05-07T05:11:04;97453.28;;;15.25;96.89
16461;BME280;8341;42.048;24.650;2023-05-07T05:13:31;97496.56;;;15.63;96.64
16461;BME280;8341;42.048;24.650;2023-05-07T05:19:15;97521.28;;;16.13;88.89
16461;BME280;8341;42.048;24.650;2023-05-07T05:21:43;97524.03;;;16.19;86.13
16461;BME280;8341;42.048;24.650;2023-05-07T05:24:10;97511.72;;;16.37;82.90
16461;BME280;8341;42.048;24.650;2023-05-07T05:26:37;97497.50;;;16.27;85.82
16461;BME280;8341;42.048;24.650;2023-05-07T05:29:04;97501.00;;;16.33;82.91
16461;BME280;8341;42.048;24.650;2023-05-07T05:31:31;97520.72;;;16.54;86.76
16461;BME280;8341;42.048;24.650;2023-05-07T05:33:59;97509.94;;;16.50;86.16
16461;BME280;8341;42.048;24.650;2023-05-07T05:36:25;97509.44;;;16.57;85.65
16461;BME280;8341;42.048;24.650;2023-05-07T05:38:55;97519.22;;;16.64;90.91
16461;BME280;8341;42.048;24.650;2023-05-07T05:41:21;97514.00;;;16.27;86.77
16461;BME280;8341;42.048;24.650;2023-05-07T05:43:48;97503.28;;;16.01;91.17
16461;BME280;8341;42.048;24.650;2023-05-07T05:46:15;97475.03;;;15.90;93.74
16461;BME280;8341;42.048;24.650;2023-05-07T05:48:42;97532.97;;;16.47;94.28
16461;BME280;8341;42.048;24.650;2023-05-07T05:51:09;97537.75;;;16.52;92.01
16461;BME280;8341;42.048;24.650;2023-05-07T05:53:36;97544.47;;;16.62;89.56
16461;BME280;8341;42.048;24.650;2023-05-07T05:56:05;97511.44;;;16.62;92.53
16461;BME280;8341;42.048;24.650;2023-05-07T05:58:32;97547.44;;;16.75;87.95
16461;BME280;8341;42.048;24.650;2023-05-07T06:00:59;97514.97;;;16.41;89.00
16461;BME280;8341;42.048;24.650;2023-05-07T06:03:28;97538.97;;;16.68;93.40
16461;BME280;8341;42.048;24.650;2023-05-07T06:05:55;97523.19;;;16.74;91.42
16461;BME280;8341;42.048;24.650;2023-05-07T06:08:21;97483.44;;;16.36;88.37
16461;BME280;8341;42.048;24.650;2023-05-07T06:10:48;97523.72;;;16.50;88.48
16461;BME280;8341;42.048;24.650;2023-05-07T06:13:17;97539.69;;;16.74;86.24
16461;BME280;8341;42.048;24.650;2023-05-07T06:15:44;97540.91;;;16.89;88.21
16461;BME280;8341;42.048;24.650;2023-05-07T06:18:11;97515.69;;;16.63;87.64
16461;BME280;8341;42.048;24.650;2023-05-07T06:20:37;97522.31;;;17.01;86.59
16461;BME280;8341;42.048;24.650;2023-05-07T06:23:05;97505.56;;;16.94;88.00
16461;BME280;8341;42.048;24.650;2023-05-07T06:25:31;97526.34;;;16.95;84.06
16461;BME280;8341;42.048;24.650;2023-05-07T06:27:58;97534.31;;;17.04;86.90
16461;BME280;8341;42.048;24.650;2023-05-07T06:30:27;97483.16;;;16.62;85.18
16461;BME280;8341;42.048;24.650;2023-05-07T06:32:54;97511.31;;;16.96;85.47
16461;BME280;8341;42.048;24.650;2023-05-07T06:35:21;97554.44;;;17.34;84.42
16461;BME280;8341;42.048;24.650;2023-05-07T06:37:48;97548.97;;;17.28;85.96
16461;BME280;8341;42.048;24.650;2023-05-07T06:40:15;97547.28;;;17.14;85.44
16461;BME280;8341;42.048;24.650;2023-05-07T06:42:42;97543.38;;;16.87;87.27
16461;BME280;8341;42.048;24.650;2023-05-07T06:45:10;97543.47;;;16.65;88.96
16461;BME280;8341;42.048;24.650;2023-05-07T06:47:38;97553.50;;;16.57;89.48
16461;BME280;8341;42.048;24.650;2023-05-07T06:50:06;97546.50;;;16.45;90.41
16461;BME280;8341;42.048;24.650;2023-05-07T06:52:33;97546.97;;;16.49;89.96
16461;BME280;8341;42.048;24.650;2023-05-07T06:55:00;97540.25;;;16.45;89.19
16461;BME280;8341;42.048;24.650;2023-05-07T06:57:27;97531.00;;;16.42;91.36
16461;BME280;8341;42.048;24.650;2023-05-07T06:59:54;97552.41;;;16.82;91.13
16461;BME280;8341;42.048;24.650;2023-05-07T07:02:21;97553.97;;;16.72;91.22
16461;BME280;8341;42.048;24.650;2023-05-07T07:04:50;97558.22;;;16.73;89.71
16461;BME280;8341;42.048;24.650;2023-05-07T07:07:17;97555.88;;;17.00;89.46
16461;BME280;8341;42.048;24.650;2023-05-07T07:09:44;97555.81;;;17.11;86.59
16461;BME280;8341;42.048;24.650;2023-05-07T07:12:11;97564.41;;;16.90;86.99
16461;BME280;8341;42.048;24.650;2023-05-07T07:14:37;97556.38;;;16.98;89.55
16461;BME280;8341;42.048;24.650;2023-05-07T07:17:04;97555.13;;;16.99;85.47
16461;BME280;8341;42.048;24.650;2023-05-07T07:19:31;97549.06;;;17.06;87.98
16461;BME280;8341;42.048;24.650;2023-05-07T07:22:00;97554.53;;;17.17;88.26
16461;BME280;8341;42.048;24.650;2023-05-07T07:24:27;97559.63;;;17.02;86.30
16461;BME280;8341;42.048;24.650;2023-05-07T07:26:54;97565.78;;;17.25;85.73
16461;BME280;8341;42.048;24.650;2023-05-07T07:29:22;97561.97;;;17.33;83.23
16461;BME280;8341;42.048;24.650;2023-05-07T07:31:51;97567.56;;;17.22;84.10
16461;BME280;8341;42.048;24.650;2023-05-07T07:34:17;97573.22;;;17.41;83.84
16461;BME280;8341;42.048;24.650;2023-05-07T07:36:44;97576.00;;;17.35;79.63
16461;BME280;8341;42.048;24.650;2023-05-07T07:39:13;97577.41;;;17.59;81.73
16461;BME280;8341;42.048;24.650;2023-05-07T07:41:40;97572.69;;;17.54;79.05
16461;BME280;8341;42.048;24.650;2023-05-07T07:44:07;97579.44;;;17.88;81.38
16461;BME280;8341;42.048;24.650;2023-05-07T07:46:34;97580.28;;;18.12;79.84
16461;BME280;8341;42.048;24.650;2023-05-07T07:49:01;97580.63;;;18.33;78.18
16461;BME280;8341;42.048;24.650;2023-05-07T07:51:28;97586.00;;;18.20;75.32
16461;BME280;8341;42.048;24.650;2023-05-07T07:53:55;97580.53;;;18.39;75.17
16461;BME280;8341;42.048;24.650;2023-05-07T07:56:24;97575.19;;;18.22;74.01
16461;BME280;8341;42.048;24.650;2023-05-07T07:58:51;97586.13;;;18.33;73.18
16461;BME280;8341;42.048;24.650;2023-05-07T08:01:18;97582.31;;;18.66;73.62
16461;BME280;8341;42.048;24.650;2023-05-07T08:03:45;97573.88;;;18.58;74.19
16461;BME280;8341;42.048;24.650;2023-05-07T08:06:12;97576.31;;;18.62;76.67
16461;BME280;8341;42.048;24.650;2023-05-07T08:08:39;97573.28;;;18.65;76.33
16461;BME280;8341;42.048;24.650;2023-05-07T08:11:06;97570.19;;;18.74;74.24
16461;BME280;8341;42.048;24.650;2023-05-07T08:13:34;97566.25;;;18.89;76.48
16461;BME280;8341;42.048;24.650;2023-05-07T08:16:01;97571.41;;;18.98;76.12
16461;BME280;8341;42.048;24.650;2023-05-07T08:18:28;97565.66;;;18.96;76.72
16461;BME280;8341;42.048;24.650;2023-05-07T08:20:55;97575.53;;;18.91;75.06
16461;BME280;8341;42.048;24.650;2023-05-07T08:23:22;97569.22;;;19.33;74.86
16461;BME280;8341;42.048;24.650;2023-05-07T08:25:49;97564.59;;;19.60;74.34
16461;BME280;8341;42.048;24.650;2023-05-07T08:28:17;97562.59;;;19.61;74.20
16461;BME280;8341;42.048;24.650;2023-05-07T08:30:46;97560.03;;;19.44;73.48
16461;BME280;8341;42.048;24.650;2023-05-07T08:33:13;97564.25;;;19.51;72.59
16461;BME280;8341;42.048;24.650;2023-05-07T08:35:40;97557.16;;;19.87;73.16
16461;BME280;8341;42.048;24.650;2023-05-07T08:38:07;97548.28;;;20.07;71.00
16461;BME280;8341;42.048;24.650;2023-05-07T08:40:37;97561.13;;;19.91;67.14
16461;BME280;8341;42.048;24.650;2023-05-07T08:43:05;97562.69;;;19.87;66.39
16461;BME280;8341;42.048;24.650;2023-05-07T08:45:34;97554.88;;;20.04;69.47
16461;BME280;8341;42.048;24.650;2023-05-07T08:48:07;97527.84;;;20.10;66.87
16461;BME280;8341;42.048;24.650;2023-05-07T08:50:36;97552.56;;;20.21;65.89
16461;BME280;8341;42.048;24.650;2023-05-07T08:53:03;97495.47;;;20.05;65.87
16461;BME280;8341;42.048;24.650;2023-05-07T08:55:30;97545.75;;;20.67;63.04
16461;BME280;8341;42.048;24.650;2023-05-07T08:57:58;97554.03;;;20.93;61.08
16461;BME280;8341;42.048;24.650;2023-05-07T09:00:25;97541.59;;;21.13;58.62
16461;BME280;8341;42.048;24.650;2023-05-07T09:02:52;97540.91;;;21.33;58.69
16461;BME280;8341;42.048;24.650;2023-05-07T09:05:21;97548.13;;;21.49;59.66
16461;BME280;8341;42.048;24.650;2023-05-07T09:07:48;97533.63;;;21.43;56.66
16461;BME280;8341;42.048;24.650;2023-05-07T09:10:15;97536.44;;;21.64;56.09
16461;BME280;8341;42.048;24.650;2023-05-07T09:12:42;97526.13;;;21.51;53.28
16461;BME280;8341;42.048;24.650;2023-05-07T09:15:10;97531.78;;;21.79;56.01
16461;BME280;8341;42.048;24.650;2023-05-07T09:17:37;97530.28;;;21.78;52.28
16461;BME280;8341;42.048;24.650;2023-05-07T09:20:07;97518.38;;;21.91;55.88
16461;BME280;8341;42.048;24.650;2023-05-07T09:22:36;97503.66;;;21.62;54.45
16461;BME280;8341;42.048;24.650;2023-05-07T09:25:04;97520.47;;;21.77;55.95
16461;BME280;8341;42.048;24.650;2023-05-07T09:27:31;97519.88;;;21.92;53.20
16461;BME280;8341;42.048;24.650;2023-05-07T09:29:58;97468.09;;;21.40;53.95
16461;BME280;8341;42.048;24.650;2023-05-07T09:32:25;97531.38;;;21.42;49.84
16461;BME280;8341;42.048;24.650;2023-05-07T09:34:53;97518.75;;;21.07;48.94
16461;BME280;8341;42.048;24.650;2023-05-07T09:37:20;97510.97;;;21.05;47.30
16461;BME280;8341;42.048;24.650;2023-05-07T09:39:49;97513.31;;;21.14;51.93
16461;BME280;8341;42.048;24.650;2023-05-07T09:42:23;97506.06;;;21.45;55.57
16461;BME280;8341;42.048;24.650;2023-05-07T09:44:50;97504.06;;;21.66;53.05
16461;BME280;8341;42.048;24.650;2023-05-07T09:47:19;97501.03;;;21.77;49.79
16461;BME280;8341;42.048;24.650;2023-05-07T09:49:48;97502.63;;;21.73;52.06
16461;BME280;8341;42.048;24.650;2023-05-07T09:52:16;97506.16;;;21.73;50.24
16461;BME280;8341;42.048;24.650;2023-05-07T09:54:45;97506.91;;;21.53;49.18
16461;BME280;8341;42.048;24.650;2023-05-07T09:57:15;97498.56;;;21.53;48.83
16461;BME280;8341;42.048;24.650;2023-05-07T09:59:43;97493.16;;;21.68;48.36
16461;BME280;8341;42.048;24.650;2023-05-07T10:02:13;97499.59;;;21.84;49.19
16461;BME280;8341;42.048;24.650;2023-05-07T10:04:41;97488.25;;;21.95;48.57
16461;BME280;8341;42.048;24.650;2023-05-07T10:07:08;97484.03;;;22.22;46.28
16461;BME280;8341;42.048;24.650;2023-05-07T10:09:36;97498.84;;;22.25;45.29
16461;BME280;8341;42.048;24.650;2023-05-07T10:12:05;97496.00;;;22.38;49.42
16461;BME280;8341;42.048;24.650;2023-05-07T10:14:34;97495.97;;;22.10;41.96
16461;BME280;8341;42.048;24.650;2023-05-07T10:17:02;97489.69;;;21.89;42.10
16461;BME280;8341;42.048;24.650;2023-05-07T10:19:29;97487.16;;;21.77;42.42
16461;BME280;8341;42.048;24.650;2023-05-07T10:22:05;97472.06;;;21.86;44.06
16461;BME280;8341;42.048;24.650;2023-05-07T10:24:33;97476.19;;;21.72;44.52
16461;BME280;8341;42.048;24.650;2023-05-07T10:27:01;97475.72;;;22.02;43.69
16461;BME280;8341;42.048;24.650;2023-05-07T10:29:36;97465.34;;;22.02;44.20
16461;BME280;8341;42.048;24.650;2023-05-07T10:32:18;97391.66;;;22.01;44.98
16461;BME280;8341;42.048;24.650;2023-05-07T10:34:49;97458.25;;;22.50;42.25
16461;BME280;8341;42.048;24.650;2023-05-07T10:37:18;97454.31;;;22.66;45.68
16461;BME280;8341;42.048;24.650;2023-05-07T10:39:45;97453.88;;;22.90;45.30
16461;BME280;8341;42.048;24.650;2023-05-07T10:42:13;97458.00;;;23.04;45.20
16461;BME280;8341;42.048;24.650;2023-05-07T10:44:42;97457.84;;;23.10;46.47
16461;BME280;8341;42.048;24.650;2023-05-07T10:47:10;97450.41;;;23.13;42.07
16461;BME280;8341;42.048;24.650;2023-05-07T10:52:43;97447.84;;;23.30;44.38
16461;BME280;8341;42.048;24.650;2023-05-07T10:55:20;97442.69;;;23.34;41.82
16461;BME280;8341;42.048;24.650;2023-05-07T10:57:50;97436.44;;;23.56;45.50
16461;BME280;8341;42.048;24.650;2023-05-07T11:00:42;97443.13;;;23.68;40.90
16461;BME280;8341;42.048;24.650;2023-05-07T11:03:10;97445.72;;;23.74;38.52
16461;BME280;8341;42.048;24.650;2023-05-07T11:05:37;97437.13;;;23.34;36.64
16461;BME280;8341;42.048;24.650;2023-05-07T11:08:05;97426.91;;;23.29;37.89
16461;BME280;8341;42.048;24.650;2023-05-07T11:10:49;97441.81;;;23.39;39.25
16461;BME280;8341;42.048;24.650;2023-05-07T11:13:17;97434.56;;;23.43;38.77
16461;BME280;8341;42.048;24.650;2023-05-07T11:15:47;97433.13;;;23.73;42.23
16461;BME280;8341;42.048;24.650;2023-05-07T11:18:15;97403.41;;;23.67;40.98
16461;BME280;8341;42.048;24.650;2023-05-07T11:20:54;97426.81;;;23.72;39.65
16461;BME280;8341;42.048;24.650;2023-05-07T11:23:55;97421.22;;;23.42;38.93
16461;BME280;8341;42.048;24.650;2023-05-07T11:26:24;97413.41;;;23.78;39.54
16461;BME280;8341;42.048;24.650;2023-05-07T11:28:52;97396.16;;;23.87;37.60
16461;BME280;8341;42.048;24.650;2023-05-07T11:31:26;97407.88;;;24.08;40.30
16461;BME280;8341;42.048;24.650;2023-05-07T11:33:54;97411.94;;;24.00;39.62
16461;BME280;8341;42.048;24.650;2023-05-07T11:36:23;97420.47;;;23.94;37.37
16461;BME280;8341;42.048;24.650;2023-05-07T11:38:50;97414.34;;;23.73;37.48
16461;BME280;8341;42.048;24.650;2023-05-07T11:41:17;97415.09;;;23.74;37.07
16461;BME280;8341;42.048;24.650;2023-05-07T11:43:58;97414.56;;;23.75;37.98
16461;BME280;8341;42.048;24.650;2023-05-07T11:46:28;97412.50;;;23.83;37.62
16461;BME280;8341;42.048;24.650;2023-05-07T11:48:55;97403.78;;;23.79;38.61
16461;BME280;8341;42.048;24.650;2023-05-07T11:51:24;97406.75;;;23.66;38.14
16461;BME280;8341;42.048;24.650;2023-05-07T11:53:52;97412.13;;;23.56;39.06
16461;BME280;8341;42.048;24.650;2023-05-07T11:56:20;97410.25;;;23.51;39.58
16461;BME280;8341;42.048;24.650;2023-05-07T11:58:47;97406.00;;;23.65;38.55
16461;BME280;8341;42.048;24.650;2023-05-07T12:01:15;97413.41;;;23.86;38.40
16461;BME280;8341;42.048;24.650;2023-05-07T12:03:45;97409.34;;;23.79;36.78
16461;BME280;8341;42.048;24.650;2023-05-07T12:06:14;97411.00;;;23.97;37.67
16461;BME280;8341;42.048;24.650;2023-05-07T12:08:42;97401.16;;;24.11;38.13
16461;BME280;8341;42.048;24.650;2023-05-07T12:11:13;97391.50;;;24.12;39.15
16461;BME280;8341;42.048;24.650;2023-05-07T12:13:42;97386.06;;;24.29;38.83
16461;BME280;8341;42.048;24.650;2023-05-07T12:16:09;97396.59;;;24.54;36.26
16461;BME280;8341;42.048;24.650;2023-05-07T12:18:37;97397.44;;;24.24;35.76
16461;BME280;8341;42.048;24.650;2023-05-07T12:21:06;97393.69;;;24.37;35.95
16461;BME280;8341;42.048;24.650;2023-05-07T12:23:34;97388.47;;;24.41;36.62
16461;BME280;8341;42.048;24.650;2023-05-07T12:26:02;97384.78;;;24.31;36.67
16461;BME280;8341;42.048;24.650;2023-05-07T12:28:30;97372.47;;;24.49;37.02
16461;BME280;8341;42.048;24.650;2023-05-07T12:30:57;97387.63;;;24.78;37.36
16461;BME280;8341;42.048;24.650;2023-05-07T12:33:25;97376.81;;;24.74;36.66
16461;BME280;8341;42.048;24.650;2023-05-07T12:35:55;97380.09;;;24.96;37.92
16461;BME280;8341;42.048;24.650;2023-05-07T12:38:24;97377.75;;;25.09;38.32
16461;BME280;8341;42.048;24.650;2023-05-07T12:40:54;97375.88;;;24.79;33.80
16461;BME280;8341;42.048;24.650;2023-05-07T12:43:24;97365.28;;;24.85;34.57
16461;BME280;8341;42.048;24.650;2023-05-07T12:45:52;97374.19;;;24.84;35.38
16461;BME280;8341;42.048;24.650;2023-05-07T12:48:20;97366.28;;;24.58;35.88
16461;BME280;8341;42.048;24.650;2023-05-07T12:50:49;97345.75;;;24.31;35.74
16461;BME280;8341;42.048;24.650;2023-05-07T12:53:16;97368.13;;;24.63;37.47
16461;BME280;8341;42.048;24.650;2023-05-07T12:55:47;97362.28;;;24.76;36.96
16461;BME280;8341;42.048;24.650;2023-05-07T12:58:16;97358.44;;;24.64;33.76
16461;BME280;8341;42.048;24.650;2023-05-07T13:00:44;97345.63;;;24.61;35.00
16461;BME280;8341;42.048;24.650;2023-05-07T13:03:11;97347.22;;;24.39;34.75
16461;BME280;8341;42.048;24.650;2023-05-07T13:05:38;97337.53;;;24.40;35.89
16461;BME280;8341;42.048;24.650;2023-05-07T13:08:05;97341.56;;;24.62;38.45